Time;durP1;ratioP1;P1;durP2;ratioP2;P2;SDS_P1;SDS_P2;PMS_P1;PMS_P2;Temp;Humidity;BMP_temperature;BMP_pressure;BME280_temperature;BME280_humidity;BME280_pressure;Samples;Min_cycle;Max_cycle;Signal;HPM_P1;HPM_P2
2023/08/04 00:02:24;;;;;;;3.28;0.75;;;;;;;;;;5051846;28;20116;-76
2023/08/04 00:04:50;;;;;;;3.22;1.00;;;;;;;;;;5051761;28;20033;-76
2023/08/04 00:07:16;;;;;;;2.83;0.73;;;;;;;;;;5051964;28;20025;-75
2023/08/04 00:09:42;;;;;;;1.73;0.60;;;;;;;;;;5051627;28;20029;-76
2023/08/04 00:12:08;;;;;;;2.40;0.98;;;;;;;;;;5051678;28;20028;-76
2023/08/04 00:14:34;;;;;;;3.65;0.93;;;;;;;;;;5051618;28;20037;-76
2023/08/04 00:17:00;;;;;;;2.60;1.00;;;;;;;;;;5051875;28;20045;-75
2023/08/04 00:19:26;;;;;;;2.45;1.20;;;;;;;;;;5053577;28;20406;-76
2023/08/04 00:21:52;;;;;;;4.25;1.10;;;;;;;;;;5037025;28;20022;-76
2023/08/04 00:24:18;;;;;;;3.45;1.48;;;;;;;;;;5035371;28;20029;-76
2023/08/04 00:26:44;;;;;;;1.98;1.08;;;;;;;;;;5035226;28;20044;-76
2023/08/04 00:29:11;;;;;;;2.28;1.15;;;;;;;;;;5046744;28;20632;-76
2023/08/04 00:31:37;;;;;;;4.30;1.00;;;;;;;;;;5055398;28;20024;-76
2023/08/04 00:34:03;;;;;;;3.88;1.08;;;;;;;;;;5054985;28;20395;-76
2023/08/04 00:36:29;;;;;;;3.13;0.85;;;;;;;;;;5055051;28;20021;-76
2023/08/04 00:38:55;;;;;;;3.63;0.90;;;;;;;;;;5055282;28;20094;-76
2023/08/04 00:41:21;;;;;;;4.43;0.90;;;;;;;;;;5054972;28;20029;-76
2023/08/04 00:43:47;;;;;;;2.83;0.82;;;;;;;;;;5052795;28;20036;-76
2023/08/04 00:46:13;;;;;;;3.17;0.90;;;;;;;;;;5043688;28;20120;-76
2023/08/04 00:48:40;;;;;;;3.17;1.20;;;;;;;;;;5048535;28;20025;-76
2023/08/04 00:51:06;;;;;;;2.20;1.00;;;;;;;;;;5055080;28;20029;-76
2023/08/04 00:53:32;;;;;;;1.70;1.13;;;;;;;;;;5054608;28;20033;-76
2023/08/04 00:55:58;;;;;;;1.77;0.90;;;;;;;;;;5054799;28;20096;-76
2023/08/04 00:58:24;;;;;;;2.97;1.20;;;;;;;;;;5054883;28;20130;-76
2023/08/04 01:00:50;;;;;;;2.05;0.90;;;;;;;;;;5050582;28;20472;-76
2023/08/04 01:03:16;;;;;;;2.35;1.00;;;;;;;;;;5034740;28;20041;-76
2023/08/04 01:05:50;;;;;;;1.17;0.60;;;;;;;;;;5038810;28;20025;-76
2023/08/04 01:08:25;;;;;;;1.90;1.08;;;;;;;;;;5054566;28;20091;-76
2023/08/04 01:10:55;;;;;;;1.42;0.80;;;;;;;;;;5054736;28;20387;-76
2023/08/04 01:13:22;;;;;;;2.33;0.60;;;;;;;;;;5054405;28;20096;-76
2023/08/04 01:15:48;;;;;;;2.42;0.75;;;;;;;;;;5054045;28;20111;-76
2023/08/04 01:18:18;;;;;;;4.65;0.90;;;;;;;;;;5047633;28;20030;-76
2023/08/04 01:20:44;;;;;;;;;;;;;;;;;;5048797;28;20033;-76
2023/08/04 01:23:10;;;;;;;6.13;1.00;;;;;;;;;;5054264;28;19905;-76
2023/08/04 01:25:36;;;;;;;3.30;1.20;;;;;;;;;;5054152;28;20017;-75
2023/08/04 01:28:05;;;;;;;3.15;0.90;;;;;;;;;;5054166;28;20682;-76
2023/08/04 01:30:32;;;;;;;1.58;0.70;;;;;;;;;;5053694;28;20029;-76
2023/08/04 01:32:58;;;;;;;3.20;1.15;;;;;;;;;;5054064;28;20017;-76
2023/08/04 01:35:24;;;;;;;1.42;0.70;;;;;;;;;;5053899;28;20033;-76
2023/08/04 01:37:50;;;;;;;2.35;0.70;;;;;;;;;;5053938;28;20025;-76
2023/08/04 01:40:16;;;;;;;2.72;0.80;;;;;;;;;;5053920;28;20033;-76
2023/08/04 01:42:42;;;;;;;2.15;0.70;;;;;;;;;;5044850;28;20032;-76
2023/08/04 01:45:09;;;;;;;0.70;0.70;;;;;;;;;;5036066;28;20691;-76
2023/08/04 01:47:35;;;;;;;0.90;0.45;;;;;;;;;;5053819;28;20040;-76
2023/08/04 01:50:02;;;;;;;3.20;0.60;;;;;;;;;;5053578;28;20029;-76
2023/08/04 01:52:28;;;;;;;1.15;0.60;;;;;;;;;;5053543;28;20428;-76
2023/08/04 01:54:55;;;;;;;1.83;0.63;;;;;;;;;;5053648;28;20029;-76
2023/08/04 01:57:21;;;;;;;2.15;0.77;;;;;;;;;;5053930;28;20475;-76
2023/08/04 01:59:47;;;;;;;0.98;0.55;;;;;;;;;;5053492;28;20083;-76
2023/08/04 02:02:13;;;;;;;2.15;0.60;;;;;;;;;;5053459;28;20052;-76
2023/08/04 02:04:39;;;;;;;2.75;0.60;;;;;;;;;;5053326;28;20036;-76
2023/08/04 02:07:05;;;;;;;2.05;0.85;;;;;;;;;;5053385;28;20037;-76
2023/08/04 02:09:33;;;;;;;2.90;1.00;;;;;;;;;;5053365;28;20021;-75
2023/08/04 02:11:59;;;;;;;1.77;0.80;;;;;;;;;;5053284;28;20456;-75
2023/08/04 02:14:29;;;;;;;1.88;0.95;;;;;;;;;;5053152;28;20387;-76
2023/08/04 02:16:55;;;;;;;2.55;1.13;;;;;;;;;;5052930;28;20053;-76
2023/08/04 02:19:22;;;;;;;1.25;0.90;;;;;;;;;;5053106;28;20074;-75
2023/08/04 02:21:48;;;;;;;4.63;0.98;;;;;;;;;;5052936;28;20021;-76
2023/08/04 02:24:14;;;;;;;2.90;1.40;;;;;;;;;;5053163;28;20104;-75
2023/08/04 02:26:40;;;;;;;6.93;1.75;;;;;;;;;;5052985;28;20070;-75
2023/08/04 02:29:06;;;;;;;4.40;1.90;;;;;;;;;;5052937;28;20021;-75
2023/08/04 02:31:33;;;;;;;5.03;1.70;;;;;;;;;;5052959;28;20112;-75
2023/08/04 02:33:59;;;;;;;2.25;1.48;;;;;;;;;;5052623;28;20342;-75
2023/08/04 02:36:26;;;;;;;4.07;2.00;;;;;;;;;;5052793;28;20064;-75
2023/08/04 02:38:52;;;;;;;4.07;1.80;;;;;;;;;;5052769;28;20066;-75
2023/08/04 02:41:18;;;;;;;5.63;2.60;;;;;;;;;;5052001;28;20534;-75
2023/08/04 02:43:44;;;;;;;3.97;1.80;;;;;;;;;;5052614;28;20021;-75
2023/08/04 02:46:11;;;;;;;7.82;2.17;;;;;;;;;;5052651;28;20100;-75
2023/08/04 02:48:37;;;;;;;4.93;1.80;;;;;;;;;;5052590;28;20033;-75
2023/08/04 02:51:07;;;;;;;6.07;2.10;;;;;;;;;;5052522;28;20029;-75
2023/08/04 02:53:33;;;;;;;;;;;;;;;;;;5049719;28;20457;-75
2023/08/04 02:55:59;;;;;;;7.45;1.90;;;;;;;;;;5042396;28;19927;-75
2023/08/04 02:58:27;;;;;;;8.52;1.73;;;;;;;;;;5052808;28;20028;-75
2023/08/04 03:00:53;;;;;;;3.10;1.70;;;;;;;;;;5052348;28;20025;-75
2023/08/04 03:03:19;;;;;;;8.15;1.92;;;;;;;;;;5052457;28;20028;-75
2023/08/04 03:05:45;;;;;;;5.55;1.70;;;;;;;;;;5052383;28;20379;-75
2023/08/04 03:08:11;;;;;;;5.13;1.20;;;;;;;;;;5052378;28;20079;-75
2023/08/04 03:10:41;;;;;;;3.50;1.15;;;;;;;;;;5052274;28;20079;-75
2023/08/04 03:13:07;;;;;;;7.65;1.40;;;;;;;;;;5052272;28;20019;-75
2023/08/04 03:15:34;;;;;;;2.90;1.27;;;;;;;;;;5051843;28;20459;-76
2023/08/04 03:18:00;;;;;;;7.28;1.45;;;;;;;;;;5034113;28;20030;-75
2023/08/04 03:20:26;;;;;;;3.78;1.48;;;;;;;;;;5032576;28;20036;-75
2023/08/04 03:22:53;;;;;;;4.80;1.40;;;;;;;;;;5032287;28;20033;-75
2023/08/04 03:25:19;;;;;;;4.13;1.20;;;;;;;;;;5032272;28;20419;-75
2023/08/04 03:27:45;;;;;;;2.75;1.40;;;;;;;;;;5032094;28;20495;-75
2023/08/04 03:30:11;;;;;;;3.30;1.40;;;;;;;;;;5032260;28;20104;-75
2023/08/04 03:32:37;;;;;;;3.03;1.27;;;;;;;;;;5032170;28;20037;-75
2023/08/04 03:35:03;;;;;;;4.25;1.60;;;;;;;;;;5031982;28;20109;-75
2023/08/04 03:37:29;;;;;;;2.30;1.20;;;;;;;;;;5032407;28;20481;-75
2023/08/04 03:39:55;;;;;;;2.58;1.15;;;;;;;;;;5032056;28;20536;-75
2023/08/04 03:42:21;;;;;;;4.70;1.20;;;;;;;;;;5032052;28;20103;-75
2023/08/04 03:44:47;;;;;;;1.73;1.10;;;;;;;;;;5031924;28;20043;-75
2023/08/04 03:47:13;;;;;;;3.70;1.20;;;;;;;;;;5032266;28;20096;-75
2023/08/04 03:49:40;;;;;;;6.40;1.30;;;;;;;;;;5031933;28;20029;-75
2023/08/04 03:52:06;;;;;;;3.25;1.20;;;;;;;;;;5032182;28;20021;-75
2023/08/04 03:54:32;;;;;;;3.72;1.50;;;;;;;;;;5035726;28;20091;-75
2023/08/04 03:56:58;;;;;;;5.25;1.40;;;;;;;;;;5035923;28;20033;-75
2023/08/04 03:59:24;;;;;;;5.28;1.38;;;;;;;;;;5035559;28;20080;-75
2023/08/04 04:01:50;;;;;;;3.45;1.40;;;;;;;;;;5035651;28;20129;-75
2023/08/04 04:04:16;;;;;;;2.63;1.50;;;;;;;;;;5035701;28;20112;-75
2023/08/04 04:06:42;;;;;;;4.85;1.27;;;;;;;;;;5035739;28;20526;-75
2023/08/04 04:09:08;;;;;;;2.70;1.60;;;;;;;;;;5035739;28;20412;-75
2023/08/04 04:11:34;;;;;;;3.72;1.33;;;;;;;;;;5053273;28;20033;-75
2023/08/04 04:14:00;;;;;;;2.55;1.10;;;;;;;;;;5055466;28;20090;-75
2023/08/04 04:16:29;;;;;;;3.05;1.48;;;;;;;;;;5055264;28;20077;-75
2023/08/04 04:18:55;;;;;;;2.55;1.30;;;;;;;;;;5055681;28;20021;-75
2023/08/04 04:21:21;;;;;;;6.90;1.60;;;;;;;;;;5055973;28;20096;-75
2023/08/04 04:23:47;;;;;;;4.40;1.35;;;;;;;;;;5055279;28;20113;-75
2023/08/04 04:26:14;;;;;;;5.70;1.70;;;;;;;;;;5055338;28;20029;-75
2023/08/04 04:28:40;;;;;;;4.78;1.65;;;;;;;;;;5055446;28;20364;-75
2023/08/04 04:31:06;;;;;;;3.30;1.55;;;;;;;;;;5055070;28;20029;-75
2023/08/04 04:33:32;;;;;;;5.05;1.75;;;;;;;;;;5055030;28;20048;-75
2023/08/04 04:35:58;;;;;;;2.75;1.60;;;;;;;;;;5055027;28;20059;-75
2023/08/04 04:38:27;;;;;;;3.53;1.45;;;;;;;;;;5055306;28;20033;-75
2023/08/04 04:41:01;;;;;;;4.65;1.60;;;;;;;;;;5055234;28;20079;-75
2023/08/04 04:43:27;;;;;;;5.97;1.95;;;;;;;;;;5054825;28;20104;-75
2023/08/04 04:45:53;;;;;;;4.22;1.75;;;;;;;;;;5055027;28;20028;-76
2023/08/04 04:48:20;;;;;;;3.47;2.03;;;;;;;;;;5054962;28;20041;-75
2023/08/04 04:50:47;;;;;;;3.95;1.98;;;;;;;;;;5054723;28;20037;-75
2023/08/04 04:53:13;;;;;;;3.35;1.90;;;;;;;;;;5054342;28;20025;-75
2023/08/04 04:55:39;;;;;;;5.75;1.83;;;;;;;;;;5034468;28;20029;-75
2023/08/04 04:58:06;;;;;;;2.38;1.70;;;;;;;;;;5034768;28;20467;-75
2023/08/04 05:00:34;;;;;;;4.30;2.38;;;;;;;;;;5034841;28;20021;-75
2023/08/04 05:03:00;;;;;;;6.00;2.42;;;;;;;;;;5049033;28;20025;-75
2023/08/04 05:05:26;;;;;;;7.85;2.30;;;;;;;;;;5053737;28;20041;-75
2023/08/04 05:07:52;;;;;;;4.22;2.22;;;;;;;;;;5054558;28;20040;-75
2023/08/04 05:10:18;;;;;;;3.97;2.30;;;;;;;;;;5046499;28;20408;-76
2023/08/04 05:12:44;;;;;;;5.07;2.70;;;;;;;;;;5034561;28;20058;-76
2023/08/04 05:15:10;;;;;;;2.65;2.22;;;;;;;;;;5034235;28;20057;-76
2023/08/04 05:17:36;;;;;;;4.78;2.42;;;;;;;;;;5049185;28;20029;-76
2023/08/04 05:20:03;;;;;;;4.70;2.40;;;;;;;;;;5054522;28;20521;-76
2023/08/04 05:22:29;;;;;;;5.10;2.45;;;;;;;;;;5054170;28;20102;-76
2023/08/04 05:24:55;;;;;;;4.95;2.30;;;;;;;;;;5054178;28;20036;-76
2023/08/04 05:27:21;;;;;;;2.63;1.90;;;;;;;;;;5054158;28;20033;-76
2023/08/04 05:29:47;;;;;;;3.90;1.92;;;;;;;;;;5054122;28;20033;-76
2023/08/04 05:32:13;;;;;;;4.30;2.00;;;;;;;;;;5053932;28;20021;-76
2023/08/04 05:34:39;;;;;;;5.07;2.25;;;;;;;;;;5053721;28;20116;-75
2023/08/04 05:37:05;;;;;;;7.28;1.90;;;;;;;;;;5053976;28;20460;-75
2023/08/04 05:39:34;;;;;;;3.92;1.40;;;;;;;;;;5053657;28;20016;-75
2023/08/04 05:42:01;;;;;;;2.55;1.65;;;;;;;;;;5053713;28;21508;-75
2023/08/04 05:44:27;;;;;;;3.72;1.80;;;;;;;;;;5054011;28;20483;-75
2023/08/04 05:46:53;;;;;;;2.58;1.85;;;;;;;;;;5053794;28;20029;-75
2023/08/04 05:49:19;;;;;;;4.00;1.67;;;;;;;;;;5054008;28;20029;-75
2023/08/04 05:51:45;;;;;;;4.00;2.20;;;;;;;;;;5053648;28;20040;-75
2023/08/04 05:54:11;;;;;;;4.45;2.05;;;;;;;;;;5053571;28;20476;-76
2023/08/04 05:56:37;;;;;;;3.95;2.15;;;;;;;;;;5053320;28;20039;-76
2023/08/04 05:59:03;;;;;;;2.97;1.70;;;;;;;;;;5053467;28;20106;-76
2023/08/04 06:01:29;;;;;;;3.65;2.30;;;;;;;;;;5053948;28;20029;-76
2023/08/04 06:03:55;;;;;;;4.65;2.00;;;;;;;;;;5035774;28;20037;-76
2023/08/04 06:06:22;;;;;;;2.25;1.75;;;;;;;;;;5033336;28;20033;-76
2023/08/04 06:08:48;;;;;;;3.45;1.90;;;;;;;;;;5043695;28;20025;-76
2023/08/04 06:11:15;;;;;;;3.63;2.00;;;;;;;;;;5042225;28;20645;-76
2023/08/04 06:13:41;;;;;;;4.97;2.53;;;;;;;;;;5033552;28;20029;-76
2023/08/04 06:16:07;;;;;;;4.00;2.20;;;;;;;;;;5032525;28;20049;-76
2023/08/04 06:18:33;;;;;;;3.60;1.85;;;;;;;;;;5033130;28;20033;-76
2023/08/04 06:20:59;;;;;;;3.92;2.00;;;;;;;;;;5048610;28;20053;-76
2023/08/04 06:23:25;;;;;;;3.55;2.00;;;;;;;;;;5053108;28;20032;-75
2023/08/04 06:25:51;;;;;;;6.63;1.80;;;;;;;;;;5053278;28;20028;-75
2023/08/04 06:28:17;;;;;;;3.33;1.80;;;;;;;;;;5053031;28;20411;-75
2023/08/04 06:30:43;;;;;;;3.45;1.15;;;;;;;;;;5052818;28;20036;-75
2023/08/04 06:33:09;;;;;;;2.50;1.20;;;;;;;;;;5052927;28;20017;-75
2023/08/04 06:35:40;;;;;;;1.88;1.20;;;;;;;;;;5053036;28;20061;-75
2023/08/04 06:38:06;;;;;;;3.67;1.10;;;;;;;;;;5053009;28;20071;-75
2023/08/04 06:40:32;;;;;;;1.90;1.08;;;;;;;;;;5052794;28;20025;-75
2023/08/04 06:42:59;;;;;;;3.47;1.00;;;;;;;;;;5052735;28;20483;-75
2023/08/04 06:45:27;;;;;;;3.22;1.08;;;;;;;;;;5053042;28;20131;-75
2023/08/04 06:47:53;;;;;;;2.47;1.35;;;;;;;;;;5052751;28;20021;-75
2023/08/04 06:50:19;;;;;;;3.40;1.50;;;;;;;;;;5052564;28;20032;-75
2023/08/04 06:52:48;;;;;;;6.57;1.45;;;;;;;;;;5052249;28;20025;-75
2023/08/04 06:55:15;;;;;;;3.72;1.33;;;;;;;;;;5052645;28;20071;-75
2023/08/04 06:57:41;;;;;;;3.05;1.42;;;;;;;;;;5051964;28;20028;-75
2023/08/04 07:00:09;;;;;;;6.68;1.98;;;;;;;;;;5052440;28;20451;-75
2023/08/04 07:02:35;;;;;;;4.32;1.55;;;;;;;;;;5052749;28;20029;-75
2023/08/04 07:05:01;;;;;;;5.63;1.85;;;;;;;;;;5052419;28;20028;-76
2023/08/04 07:07:27;;;;;;;4.53;1.63;;;;;;;;;;5052763;28;20452;-76
2023/08/04 07:09:53;;;;;;;4.97;1.98;;;;;;;;;;5052290;28;20156;-75
2023/08/04 07:12:19;;;;;;;4.30;1.58;;;;;;;;;;5052230;28;20021;-76
2023/08/04 07:14:45;;;;;;;3.78;1.73;;;;;;;;;;5047412;28;20048;-76
2023/08/04 07:17:11;;;;;;;4.75;1.60;;;;;;;;;;5032409;28;20025;-75
2023/08/04 07:19:37;;;;;;;2.47;1.60;;;;;;;;;;5032206;28;20700;-75
2023/08/04 07:22:03;;;;;;;4.40;1.30;;;;;;;;;;5032184;28;20032;-76
2023/08/04 07:24:30;;;;;;;6.85;1.42;;;;;;;;;;5032124;28;20392;-76
2023/08/04 07:26:56;;;;;;;4.32;1.60;;;;;;;;;;5032384;28;20018;-75
2023/08/04 07:29:22;;;;;;;4.28;1.60;;;;;;;;;;5035757;28;20145;-75
2023/08/04 07:31:48;;;;;;;3.65;1.25;;;;;;;;;;5051843;28;20033;-76
2023/08/04 07:34:14;;;;;;;3.42;1.20;;;;;;;;;;5048949;28;20029;-76
2023/08/04 07:36:40;;;;;;;3.55;1.10;;;;;;;;;;5031981;28;20028;-76
2023/08/04 07:39:06;;;;;;;5.20;1.40;;;;;;;;;;5057747;28;20043;-76
2023/08/04 07:41:32;;;;;;;4.00;1.50;;;;;;;;;;5051942;28;20028;-76
2023/08/04 07:43:58;;;;;;;2.70;1.55;;;;;;;;;;5051760;28;20025;-76
2023/08/04 07:46:25;;;;;;;3.67;1.23;;;;;;;;;;5051924;28;20356;-76
2023/08/04 07:48:52;;;;;;;5.85;1.67;;;;;;;;;;5051842;28;20017;-76
2023/08/04 07:51:19;;;;;;;5.82;1.40;;;;;;;;;;5045269;28;20415;-76
2023/08/04 07:53:45;;;;;;;4.15;1.27;;;;;;;;;;5040789;28;20034;-76
2023/08/04 07:56:11;;;;;;;2.92;1.30;;;;;;;;;;5047812;28;20033;-76
2023/08/04 07:58:37;;;;;;;3.08;1.00;;;;;;;;;;5051538;28;20025;-76
2023/08/04 08:01:04;;;;;;;4.65;1.40;;;;;;;;;;5049687;28;20094;-76
2023/08/04 08:03:30;;;;;;;3.88;1.33;;;;;;;;;;5051437;28;20017;-76
2023/08/04 08:05:56;;;;;;;3.05;1.25;;;;;;;;;;5048255;28;20017;-76
2023/08/04 08:08:22;;;;;;;3.72;1.20;;;;;;;;;;5053948;28;20016;-76
2023/08/04 08:10:48;;;;;;;4.72;1.20;;;;;;;;;;5051485;28;20283;-76
2023/08/04 08:13:14;;;;;;;3.25;1.60;;;;;;;;;;5051191;28;20410;-75
2023/08/04 08:15:40;;;;;;;4.35;1.50;;;;;;;;;;5050666;28;20056;-75
2023/08/04 08:18:06;;;;;;;3.08;1.30;;;;;;;;;;5051293;28;20021;-76
2023/08/04 08:20:33;;;;;;;3.50;1.67;;;;;;;;;;5051312;28;20025;-76
2023/08/04 08:22:59;;;;;;;3.75;1.30;;;;;;;;;;5051402;28;20036;-76
2023/08/04 08:25:25;;;;;;;5.28;1.50;;;;;;;;;;5045898;28;20025;-77
2023/08/04 08:27:51;;;;;;;4.32;1.27;;;;;;;;;;5031390;28;20026;-75
2023/08/04 08:30:17;;;;;;;5.72;1.80;;;;;;;;;;5050810;28;20029;-75
2023/08/04 08:32:43;;;;;;;4.57;1.42;;;;;;;;;;5042496;28;20053;-76
2023/08/04 08:35:09;;;;;;;5.25;1.85;;;;;;;;;;5049684;28;20126;-76
2023/08/04 08:37:35;;;;;;;8.90;2.90;;;;;;;;;;5043815;28;20468;-76
2023/08/04 08:40:01;;;;;;;2.78;1.20;;;;;;;;;;5038331;28;20021;-75
2023/08/04 08:42:28;;;;;;;4.82;1.20;;;;;;;;;;5052950;28;20061;-76
2023/08/04 08:44:54;;;;;;;4.82;1.73;;;;;;;;;;5051709;28;20037;-76
2023/08/04 08:47:21;;;;;;;3.58;1.42;;;;;;;;;;5054592;28;20028;-75
2023/08/04 08:49:48;;;;;;;4.90;1.40;;;;;;;;;;5053903;28;20541;-75
2023/08/04 08:52:14;;;;;;;5.85;1.83;;;;;;;;;;5054703;28;20032;-76
2023/08/04 08:54:41;;;;;;;4.88;1.92;;;;;;;;;;5054768;28;20521;-76
2023/08/04 08:57:07;;;;;;;7.25;1.67;;;;;;;;;;5042926;28;20052;-75
2023/08/04 08:59:33;;;;;;;3.97;1.40;;;;;;;;;;5042155;28;20026;-76
2023/08/04 09:02:01;;;;;;;4.95;1.58;;;;;;;;;;5052660;28;20025;-76
2023/08/04 09:04:28;;;;;;;7.35;1.52;;;;;;;;;;5054325;28;20426;-76
2023/08/04 09:06:57;;;;;;;3.28;1.42;;;;;;;;;;5054449;28;20367;-76
2023/08/04 09:09:23;;;;;;;4.68;1.40;;;;;;;;;;5041627;28;20057;-76
2023/08/04 09:11:49;;;;;;;4.53;1.55;;;;;;;;;;5041120;28;20423;-76
2023/08/04 09:14:15;;;;;;;5.13;1.40;;;;;;;;;;5054153;28;20074;-76
2023/08/04 09:16:42;;;;;;;4.93;1.48;;;;;;;;;;5054275;28;20053;-76
2023/08/04 09:19:09;;;;;;;3.97;1.38;;;;;;;;;;5041343;28;20025;-76
2023/08/04 09:21:36;;;;;;;4.68;1.30;;;;;;;;;;5051073;28;20381;-76
2023/08/04 09:24:02;;;;;;;3.20;1.05;;;;;;;;;;5054302;28;20423;-76
2023/08/04 09:26:45;;;;;;;5.00;1.50;;;;;;;;;;5053828;28;20036;-76
2023/08/04 09:29:11;;;;;;;4.35;1.50;;;;;;;;;;5053954;28;20059;-76
2023/08/04 09:31:41;;;;;;;4.72;1.60;;;;;;;;;;5053889;28;20036;-76
2023/08/04 09:34:08;;;;;;;3.80;1.40;;;;;;;;;;5050037;28;20040;-76
2023/08/04 09:36:47;;;;;;;4.68;1.35;;;;;;;;;;5044429;28;20107;-76
2023/08/04 09:39:14;;;;;;;2.85;1.25;;;;;;;;;;5040544;28;20025;-76
2023/08/04 09:41:44;;;;;;;4.25;1.50;;;;;;;;;;5040778;28;20026;-76
2023/08/04 09:44:10;;;;;;;4.32;1.67;;;;;;;;;;5033845;28;20040;-76
2023/08/04 09:46:49;;;;;;;7.25;1.63;;;;;;;;;;5034442;28;20029;-76
2023/08/04 09:49:15;;;;;;;6.10;1.30;;;;;;;;;;5053666;28;20527;-76
2023/08/04 09:51:41;;;;;;;6.03;1.40;;;;;;;;;;5052220;28;20032;-76
2023/08/04 09:54:08;;;;;;;6.88;1.52;;;;;;;;;;5041383;28;20041;-76
2023/08/04 09:56:34;;;;;;;5.70;1.58;;;;;;;;;;5036574;28;20029;-76
2023/08/04 09:59:00;;;;;;;5.38;1.73;;;;;;;;;;5040268;28;20470;-77
2023/08/04 10:01:26;;;;;;;3.90;1.40;;;;;;;;;;5038636;28;20029;-76
2023/08/04 10:03:53;;;;;;;6.72;1.40;;;;;;;;;;5041862;28;20104;-77
2023/08/04 10:06:20;;;;;;;3.78;1.15;;;;;;;;;;5053318;28;20027;-76
2023/08/04 10:08:47;;;;;;;5.55;1.58;;;;;;;;;;5034521;28;20366;-77
2023/08/04 10:11:13;;;;;;;5.43;1.67;;;;;;;;;;5036001;28;20033;-76
2023/08/04 10:13:47;;;;;;;5.45;1.67;;;;;;;;;;5047110;28;20029;-77
2023/08/04 10:16:14;;;;;;;7.07;1.90;;;;;;;;;;5047646;28;20045;-77
2023/08/04 10:18:50;;;;;;;5.32;1.60;;;;;;;;;;5033093;28;20038;-76
2023/08/04 10:21:20;;;;;;;3.15;1.30;;;;;;;;;;5033082;28;20032;-77
2023/08/04 10:23:46;;;;;;;5.60;1.20;;;;;;;;;;5044466;28;20032;-76
2023/08/04 10:26:13;;;;;;;2.67;1.00;;;;;;;;;;5048888;28;20411;-76
2023/08/04 10:28:57;;;;;;;3.50;1.23;;;;;;;;;;5052243;28;20694;-76
2023/08/04 10:31:41;;;;;;;4.05;1.17;;;;;;;;;;5052948;28;20025;-76
2023/08/04 10:34:16;;;;;;;3.85;1.50;;;;;;;;;;5052720;28;20037;-77
2023/08/04 10:36:54;;;;;;;3.60;1.10;;;;;;;;;;5033250;28;20539;-76
2023/08/04 10:39:31;;;;;;;4.18;1.08;;;;;;;;;;5052471;28;20104;-76
2023/08/04 10:41:57;;;;;;;2.60;0.90;;;;;;;;;;5051337;28;20029;-77
2023/08/04 10:44:49;;;;;;;1.50;0.73;;;;;;;;;;5052677;28;20024;-77
2023/08/04 10:47:16;;;;;;;3.05;1.00;;;;;;;;;;5046147;28;20037;-77
2023/08/04 10:49:42;;;;;;;2.70;0.85;;;;;;;;;;5044505;28;20053;-77
2023/08/04 10:52:09;;;;;;;2.50;0.60;;;;;;;;;;5047830;28;20029;-77
2023/08/04 10:54:35;;;;;;;2.72;0.80;;;;;;;;;;5044020;28;20411;-77
2023/08/04 10:57:01;;;;;;;1.83;0.80;;;;;;;;;;5052264;28;20021;-77
2023/08/04 10:59:29;;;;;;;2.78;0.90;;;;;;;;;;5052267;28;20052;-76
2023/08/04 11:01:55;;;;;;;2.17;0.80;;;;;;;;;;5052193;28;20107;-76
2023/08/04 11:04:21;;;;;;;1.48;0.77;;;;;;;;;;5052335;28;20029;-76
2023/08/04 11:06:49;;;;;;;2.60;0.90;;;;;;;;;;5036211;28;20485;-76
2023/08/04 11:09:15;;;;;;;4.43;1.30;;;;;;;;;;5052191;28;20036;-76
2023/08/04 11:11:41;;;;;;;1.88;0.60;;;;;;;;;;5054211;28;20028;-76
2023/08/04 11:14:07;;;;;;;0.95;0.63;;;;;;;;;;5051887;28;20559;-76
2023/08/04 11:16:35;;;;;;;2.83;1.10;;;;;;;;;;5046270;28;20518;-77
2023/08/04 11:19:03;;;;;;;3.30;0.68;;;;;;;;;;5032538;28;20512;-77
2023/08/04 11:21:30;;;;;;;2.22;0.88;;;;;;;;;;5045342;28;20499;-77
2023/08/04 11:23:56;;;;;;;5.07;1.00;;;;;;;;;;5044936;28;20052;-77
2023/08/04 11:26:23;;;;;;;1.35;0.60;;;;;;;;;;5038604;28;20471;-77
2023/08/04 11:28:49;;;;;;;2.50;0.88;;;;;;;;;;5051782;28;20031;-76
2023/08/04 11:31:20;;;;;;;2.83;0.85;;;;;;;;;;5045630;28;20025;-76
2023/08/04 11:33:46;;;;;;;1.77;0.75;;;;;;;;;;5032768;28;20033;-76
2023/08/04 11:36:12;;;;;;;2.85;0.93;;;;;;;;;;5051659;28;20027;-77
2023/08/04 11:38:38;;;;;;;3.47;1.00;;;;;;;;;;5052882;28;20017;-78
2023/08/04 11:41:08;;;;;;;4.95;1.20;;;;;;;;;;5052398;28;20686;-77
2023/08/04 11:43:34;;;;;;;3.28;1.00;;;;;;;;;;5050581;28;20033;-77
2023/08/04 11:46:06;;;;;;;5.07;1.83;;;;;;;;;;5032045;28;20373;-77
2023/08/04 11:48:34;;;;;;;1.48;0.82;;;;;;;;;;5034620;28;20431;-78
2023/08/04 11:51:00;;;;;;;4.25;1.35;;;;;;;;;;5055685;28;20029;-78
2023/08/04 11:53:27;;;;;;;3.28;1.48;;;;;;;;;;5055749;28;20094;-79
2023/08/04 11:55:57;;;;;;;4.22;1.85;;;;;;;;;;5053235;28;20107;-77
2023/08/04 11:58:30;;;;;;;6.20;1.40;;;;;;;;;;5039229;28;20024;-77
2023/08/04 12:00:56;;;;;;;5.03;1.67;;;;;;;;;;5041380;28;20044;-78
2023/08/04 12:03:22;;;;;;;3.70;1.48;;;;;;;;;;5036124;28;20031;-78
2023/08/04 12:05:48;;;;;;;2.80;1.45;;;;;;;;;;5052415;28;20115;-78
2023/08/04 12:08:15;;;;;;;4.00;0.93;;;;;;;;;;5040583;28;20100;-78
2023/08/04 12:10:42;;;;;;;2.05;1.00;;;;;;;;;;5053222;28;20021;-77
2023/08/04 12:13:08;;;;;;;3.15;1.27;;;;;;;;;;5033658;28;20030;-77
2023/08/04 12:15:52;;;;;;;3.67;1.40;;;;;;;;;;5046199;28;20114;-75
2023/08/04 12:18:25;;;;;;;2.63;1.95;;;;;;;;;;5054884;28;20426;-74
2023/08/04 12:20:51;;;;;;;3.58;1.90;;;;;;;;;;5055080;28;20474;-74
2023/08/04 12:23:17;;;;;;;4.65;1.90;;;;;;;;;;5055113;28;20112;-73
2023/08/04 12:25:43;;;;;;;5.38;2.30;;;;;;;;;;5054895;28;20029;-74
2023/08/04 12:28:11;;;;;;;6.38;2.50;;;;;;;;;;5055259;28;20036;-74
2023/08/04 12:30:37;;;;;;;6.38;2.28;;;;;;;;;;5053950;28;20017;-74
2023/08/04 12:33:03;;;;;;;6.43;2.15;;;;;;;;;;5043264;28;20515;-74
2023/08/04 12:35:29;;;;;;;4.72;2.25;;;;;;;;;;5054778;28;20033;-74
2023/08/04 12:37:55;;;;;;;6.53;2.35;;;;;;;;;;5055160;28;20056;-75
2023/08/04 12:40:21;;;;;;;9.88;2.58;;;;;;;;;;5040299;28;20084;-76
2023/08/04 12:42:47;;;;;;;7.53;1.80;;;;;;;;;;5043207;28;20024;-76
2023/08/04 12:45:13;;;;;;;5.25;2.33;;;;;;;;;;5041621;28;20060;-76
2023/08/04 12:47:39;;;;;;;4.30;1.70;;;;;;;;;;5054623;28;20045;-76
2023/08/04 12:50:05;;;;;;;7.28;2.10;;;;;;;;;;5054758;28;20083;-76
2023/08/04 12:52:31;;;;;;;3.30;1.63;;;;;;;;;;5046860;28;20435;-76
2023/08/04 12:54:58;;;;;;;2.88;1.80;;;;;;;;;;5049149;28;20551;-76
2023/08/04 12:57:24;;;;;;;4.43;2.20;;;;;;;;;;5054797;28;20028;-77
2023/08/04 12:59:50;;;;;;;4.63;1.80;;;;;;;;;;5041028;28;20026;-76
2023/08/04 13:02:16;;;;;;;4.55;1.98;;;;;;;;;;5054523;28;20047;-76
2023/08/04 13:04:42;;;;;;;1.73;1.20;;;;;;;;;;5053438;28;20445;-76
2023/08/04 13:07:08;;;;;;;5.68;1.67;;;;;;;;;;5043109;28;20107;-76
2023/08/04 13:09:34;;;;;;;3.17;1.60;;;;;;;;;;5052450;28;20032;-76
2023/08/04 13:12:00;;;;;;;4.65;1.80;;;;;;;;;;5054429;28;20025;-76
2023/08/04 13:14:26;;;;;;;3.83;1.73;;;;;;;;;;5053179;28;20029;-76
2023/08/04 13:16:52;;;;;;;5.55;1.80;;;;;;;;;;5043214;28;20064;-76
2023/08/04 13:19:18;;;;;;;4.45;1.50;;;;;;;;;;5053122;28;20373;-76
2023/08/04 13:21:44;;;;;;;2.88;1.80;;;;;;;;;;5054095;28;20063;-76
2023/08/04 13:24:11;;;;;;;3.65;1.60;;;;;;;;;;5040499;28;20048;-76
2023/08/04 13:26:39;;;;;;;2.80;1.40;;;;;;;;;;5053533;28;20078;-76
2023/08/04 13:29:05;;;;;;;3.55;1.55;;;;;;;;;;5055548;28;20056;-78
2023/08/04 13:31:31;;;;;;;3.95;1.40;;;;;;;;;;5054853;28;20021;-76
2023/08/04 13:33:57;;;;;;;2.65;1.20;;;;;;;;;;5053761;28;20021;-76
2023/08/04 13:36:23;;;;;;;4.65;2.08;;;;;;;;;;5044387;28;20100;-76
2023/08/04 13:38:50;;;;;;;6.53;1.55;;;;;;;;;;5037128;28;20021;-76
2023/08/04 13:41:16;;;;;;;2.78;1.60;;;;;;;;;;5053576;28;20021;-76
2023/08/04 13:43:43;;;;;;;4.85;1.55;;;;;;;;;;5040526;28;20404;-76
2023/08/04 13:46:09;;;;;;;3.72;1.50;;;;;;;;;;5043946;28;20064;-78
2023/08/04 13:48:35;;;;;;;6.50;1.55;;;;;;;;;;5053845;28;20081;-77
2023/08/04 13:51:03;;;;;;;3.38;1.33;;;;;;;;;;5053525;28;20029;-77
2023/08/04 13:53:29;;;;;;;2.42;1.30;;;;;;;;;;5040055;28;20024;-76
2023/08/04 13:55:55;;;;;;;5.63;1.83;;;;;;;;;;5049720;28;20043;-77
2023/08/04 13:58:21;;;;;;;5.70;1.45;;;;;;;;;;5053427;28;20025;-77
2023/08/04 14:00:55;;;;;;;4.03;1.42;;;;;;;;;;5053315;28;20036;-77
2023/08/04 14:03:21;;;;;;;2.92;1.67;;;;;;;;;;5049286;28;20079;-77
2023/08/04 14:05:47;;;;;;;4.20;1.40;;;;;;;;;;5044136;28;20410;-77
2023/08/04 14:08:13;;;;;;;2.60;1.33;;;;;;;;;;5044358;28;20028;-76
2023/08/04 14:10:39;;;;;;;2.65;1.40;;;;;;;;;;5049304;28;20021;-76
2023/08/04 14:13:05;;;;;;;4.25;1.80;;;;;;;;;;5038144;28;20456;-76
2023/08/04 14:15:31;;;;;;;6.82;1.40;;;;;;;;;;5045274;28;20056;-76
2023/08/04 14:17:57;;;;;;;2.58;1.50;;;;;;;;;;5052666;28;20043;-76
2023/08/04 14:20:23;;;;;;;6.32;1.77;;;;;;;;;;5052681;28;20543;-76
2023/08/04 14:22:49;;;;;;;4.05;1.38;;;;;;;;;;5049125;28;20384;-76
2023/08/04 14:25:15;;;;;;;3.13;1.25;;;;;;;;;;5043494;28;20029;-76
2023/08/04 14:27:41;;;;;;;2.90;1.38;;;;;;;;;;5052427;28;20028;-76
2023/08/04 14:30:08;;;;;;;1.65;1.20;;;;;;;;;;5052596;28;20025;-76
2023/08/04 14:32:34;;;;;;;3.65;1.10;;;;;;;;;;5035125;28;20025;-76
2023/08/04 14:35:00;;;;;;;2.63;1.00;;;;;;;;;;5033076;28;20108;-76
2023/08/04 14:37:26;;;;;;;4.38;1.40;;;;;;;;;;5045610;28;20100;-76
2023/08/04 14:39:52;;;;;;;1.33;0.85;;;;;;;;;;5052986;28;20067;-76
2023/08/04 14:42:18;;;;;;;3.90;1.60;;;;;;;;;;5052576;28;20077;-76